Terminal Aerodrome Forecast
Issued by NWS Shreveport, LA

Home | Current Version | Previous Version | Text Only | Print | Product List | Glossary On
Versions: 1 2 3 4 5 6 7 8 9 10 11 12 13 14 15 16 17 18
423
FTUS44 KSHV 292342
TAFTXK
TAF
KTXK 292342Z 3000/3024 18014G22KT P6SM VCTS OVC040CB
      TEMPO 3003/3006 VRB25G50KT 1SM +TSRA BR OVC020CB
     FM300700 21012KT P6SM VCSH OVC060
     FM301600 24016G28KT P6SM SKC
      TEMPO 3016/3019 23012KT SCT100=

USA.gov is the U.S. government's official web portal to all federal, state and local government web resources and services.